CheckWX is a tool to help pilots better visualize weather data.  It is not intended as a substitute for an official pre-flight weather briefing.

09:06:09 UTC

KGUS METAR
Grissom ARB Airport
Peru, Indiana, USA
Current

1 hour ago

KGUS 250756Z AUTO 18005KT 10SM OVC170 21/21 A2996 RMK AO2 DZE08 SLP142 P0000 T02070207 $
Observed
May-25 @ 07:56 UTC
Wind
  • 180° at 5 KTS
Visibility
Flight Rules
VFR
Cloud Levels
  • Overcast at 17,000' AGL
Temperature
21°C / 70°F
Dewpoint
21°C / 70°F
Humidity
100%
Altimeter
29.96" Hg
Pressure
1014.52 hPa
Current Rain
0.01"
Previous

2 hours ago

KGUS 250708Z AUTO 17006KT 10SM OVC120 21/21 A2997 RMK AO2 DZE08 SLP146 $
Observed
May-25 @ 07:08 UTC
Wind
  • 170° at 6 KTS
Visibility
Flight Rules
VFR
Cloud Levels
  • Overcast at 12,000' AGL
Temperature
21°C / 70°F
Dewpoint
21°C / 70°F
Humidity
100%
Altimeter
29.97" Hg
Pressure
1014.92 hPa
Previous

2 hours ago

KGUS 250656Z AUTO 18006KT 10SM -DZ OVC120 21/21 A2998 RMK AO2 DZB33 SLP149 P0000 T02110211 $
Observed
May-25 @ 06:56 UTC
Wind
  • 180° at 6 KTS
Visibility
Flight Rules
VFR
Conditions
Light Drizzle
Cloud Levels
  • Overcast at 12,000' AGL
Temperature
21°C / 70°F
Dewpoint
21°C / 70°F
Humidity
100%
Altimeter
29.98" Hg
Pressure
1015.22 hPa
Current Rain
0.01"